sensor_id;sensor_type;location;lat;lon;timestamp;pressure;altitude;pressure_sealevel;temperature;humidity
25869;BME280;13688;53.154;18.136;2023-02-11T00:02:00;102014.64;;;1.59;83.89
25869;BME280;13688;53.154;18.136;2023-02-11T00:07:22;101996.88;;;1.63;83.83
25869;BME280;13688;53.154;18.136;2023-02-11T00:12:45;102041.95;;;1.64;83.69
25869;BME280;13688;53.154;18.136;2023-02-11T00:18:07;102015.41;;;1.66;83.42
25869;BME280;13688;53.154;18.136;2023-02-11T00:23:30;102026.05;;;1.63;83.20
25869;BME280;13688;53.154;18.136;2023-02-11T00:28:54;102005.81;;;1.59;83.17
25869;BME280;13688;53.154;18.136;2023-02-11T00:34:16;102001.46;;;1.56;83.20
25869;BME280;13688;53.154;18.136;2023-02-11T00:39:40;101976.73;;;1.56;83.26
25869;BME280;13688;53.154;18.136;2023-02-11T00:45:02;101941.44;;;1.52;83.19
25869;BME280;13688;53.154;18.136;2023-02-11T00:50:25;101922.13;;;1.47;83.16
25869;BME280;13688;53.154;18.136;2023-02-11T00:55:47;101921.22;;;1.48;83.12
25869;BME280;13688;53.154;18.136;2023-02-11T01:01:10;101914.18;;;1.47;82.97
25869;BME280;13688;53.154;18.136;2023-02-11T01:06:33;101931.71;;;1.53;82.72
25869;BME280;13688;53.154;18.136;2023-02-11T01:11:55;101916.83;;;1.47;82.51
25869;BME280;13688;53.154;18.136;2023-02-11T01:17:17;101886.80;;;1.47;82.43
25869;BME280;13688;53.154;18.136;2023-02-11T01:22:40;101870.04;;;1.44;82.26
25869;BME280;13688;53.154;18.136;2023-02-11T01:28:02;101867.39;;;1.44;82.17
25869;BME280;13688;53.154;18.136;2023-02-11T01:33:29;101859.44;;;1.44;82.04
25869;BME280;13688;53.154;18.136;2023-02-11T01:38:51;101844.36;;;1.48;81.86
25869;BME280;13688;53.154;18.136;2023-02-11T01:44:33;101848.75;;;1.49;81.46
25869;BME280;13688;53.154;18.136;2023-02-11T01:49:56;101838.19;;;1.48;81.18
25869;BME280;13688;53.154;18.136;2023-02-11T01:55:21;101824.11;;;1.46;80.97
25869;BME280;13688;53.154;18.136;2023-02-11T02:01:01;101802.99;;;1.41;80.72
25869;BME280;13688;53.154;18.136;2023-02-11T02:06:43;101798.60;;;1.40;80.67
25869;BME280;13688;53.154;18.136;2023-02-11T02:12:02;101801.33;;;1.37;80.71
25869;BME280;13688;53.154;18.136;2023-02-11T02:17:33;101788.00;;;1.40;80.63
25869;BME280;13688;53.154;18.136;2023-02-11T02:23:04;101783.66;;;1.37;80.56
25869;BME280;13688;53.154;18.136;2023-02-11T02:28:51;101766.02;;;1.36;80.51
25869;BME280;13688;53.154;18.136;2023-02-11T02:34:36;101753.69;;;1.34;80.51
25869;BME280;13688;53.154;18.136;2023-02-11T02:39:51;101737.78;;;1.35;80.55
25869;BME280;13688;53.154;18.136;2023-02-11T02:45:15;101736.00;;;1.36;80.47
25869;BME280;13688;53.154;18.136;2023-02-11T02:50:40;101721.06;;;1.32;80.40
25869;BME280;13688;53.154;18.136;2023-02-11T02:56:53;101723.02;;;1.24;80.54
25869;BME280;13688;53.154;18.136;2023-02-11T03:01:42;101731.87;;;1.23;80.83
25869;BME280;13688;53.154;18.136;2023-02-11T03:12:46;101686.80;;;1.24;81.10
25869;BME280;13688;53.154;18.136;2023-02-11T03:18:12;101698.26;;;1.25;81.05
25869;BME280;13688;53.154;18.136;2023-02-11T03:23:39;101676.20;;;1.24;81.01
25869;BME280;13688;53.154;18.136;2023-02-11T03:29:17;101674.41;;;1.26;80.97
25869;BME280;13688;53.154;18.136;2023-02-11T03:35:08;101654.22;;;1.21;80.95
25869;BME280;13688;53.154;18.136;2023-02-11T03:40:37;101652.40;;;1.23;81.00
25869;BME280;13688;53.154;18.136;2023-02-11T03:46:01;101671.85;;;1.22;81.01
25869;BME280;13688;53.154;18.136;2023-02-11T03:51:25;101660.30;;;1.24;81.05
25869;BME280;13688;53.154;18.136;2023-02-11T03:56:55;101619.66;;;1.25;81.01
25869;BME280;13688;53.154;18.136;2023-02-11T04:02:18;101617.05;;;1.24;80.95
25869;BME280;13688;53.154;18.136;2023-02-11T04:07:48;101632.12;;;1.22;80.92
25869;BME280;13688;53.154;18.136;2023-02-11T04:13:11;101611.75;;;1.24;81.06
25869;BME280;13688;53.154;18.136;2023-02-11T04:18:33;101600.28;;;1.23;81.07
25869;BME280;13688;53.154;18.136;2023-02-11T04:23:55;101595.80;;;1.27;81.11
25869;BME280;13688;53.154;18.136;2023-02-11T04:29:18;101596.67;;;1.27;81.16
25869;BME280;13688;53.154;18.136;2023-02-11T04:34:40;101587.00;;;1.25;81.23
25869;BME280;13688;53.154;18.136;2023-02-11T04:40:04;101603.80;;;1.24;81.34
25869;BME280;13688;53.154;18.136;2023-02-11T04:45:26;101585.34;;;1.21;81.51
25869;BME280;13688;53.154;18.136;2023-02-11T04:50:49;101584.44;;;1.22;81.72
25869;BME280;13688;53.154;18.136;2023-02-11T04:56:11;101592.38;;;1.22;81.92
25869;BME280;13688;53.154;18.136;2023-02-11T05:01:34;101584.44;;;1.22;82.05
25869;BME280;13688;53.154;18.136;2023-02-11T05:06:56;101576.58;;;1.19;82.20
25869;BME280;13688;53.154;18.136;2023-02-11T05:12:19;101551.78;;;1.21;82.42
25869;BME280;13688;53.154;18.136;2023-02-11T05:17:41;101550.09;;;1.19;82.56
25869;BME280;13688;53.154;18.136;2023-02-11T05:23:03;101531.45;;;1.22;82.81
25869;BME280;13688;53.154;18.136;2023-02-11T05:28:26;101517.39;;;1.20;82.98
25869;BME280;13688;53.154;18.136;2023-02-11T05:33:49;101511.33;;;1.14;83.29
25869;BME280;13688;53.154;18.136;2023-02-11T05:39:12;101495.48;;;1.13;83.74
25869;BME280;13688;53.154;18.136;2023-02-11T05:44:35;101493.88;;;1.07;84.30
25869;BME280;13688;53.154;18.136;2023-02-11T05:49:59;101505.63;;;0.97;85.28
25869;BME280;13688;53.154;18.136;2023-02-11T05:55:21;101485.55;;;0.89;86.75
25869;BME280;13688;53.154;18.136;2023-02-11T06:00:44;101483.99;;;0.80;88.44
25869;BME280;13688;53.154;18.136;2023-02-11T06:06:12;101484.22;;;0.71;90.38
25869;BME280;13688;53.154;18.136;2023-02-11T06:11:35;101462.22;;;0.69;92.34
25869;BME280;13688;53.154;18.136;2023-02-11T06:16:57;101483.36;;;0.70;94.25
25869;BME280;13688;53.154;18.136;2023-02-11T06:22:21;101474.41;;;0.74;95.94
25869;BME280;13688;53.154;18.136;2023-02-11T06:27:44;101476.16;;;0.75;97.40
25869;BME280;13688;53.154;18.136;2023-02-11T06:33:06;101474.41;;;0.74;98.67
25869;BME280;13688;53.154;18.136;2023-02-11T06:38:29;101443.47;;;0.78;99.90
25869;BME280;13688;53.154;18.136;2023-02-11T06:43:53;101445.20;;;0.79;100.00
25869;BME280;13688;53.154;18.136;2023-02-11T06:49:15;101438.95;;;0.81;100.00
25869;BME280;13688;53.154;18.136;2023-02-11T06:54:37;101438.03;;;0.82;100.00
25869;BME280;13688;53.154;18.136;2023-02-11T07:00:00;101441.36;;;0.91;100.00
25869;BME280;13688;53.154;18.136;2023-02-11T07:05:23;101448.23;;;0.98;100.00
25869;BME280;13688;53.154;18.136;2023-02-11T07:10:47;101450.64;;;1.07;100.00
25869;BME280;13688;53.154;18.136;2023-02-11T07:16:14;101417.76;;;1.14;100.00
25869;BME280;13688;53.154;18.136;2023-02-11T07:21:37;101422.14;;;1.15;100.00
25869;BME280;13688;53.154;18.136;2023-02-11T07:26:59;101415.72;;;1.24;100.00
25869;BME280;13688;53.154;18.136;2023-02-11T07:32:22;101419.99;;;1.29;100.00
25869;BME280;13688;53.154;18.136;2023-02-11T07:37:44;101412.66;;;1.39;100.00
25869;BME280;13688;53.154;18.136;2023-02-11T07:43:06;101379.72;;;1.48;100.00
25869;BME280;13688;53.154;18.136;2023-02-11T07:48:29;101397.20;;;1.53;100.00
25869;BME280;13688;53.154;18.136;2023-02-11T07:53:52;101391.73;;;1.59;100.00
25869;BME280;13688;53.154;18.136;2023-02-11T07:59:16;101378.91;;;1.73;100.00
25869;BME280;13688;53.154;18.136;2023-02-11T08:04:38;101372.62;;;1.78;100.00
25869;BME280;13688;53.154;18.136;2023-02-11T08:10:01;101366.16;;;1.86;99.84
25869;BME280;13688;53.154;18.136;2023-02-11T08:15:24;101371.02;;;2.00;99.25
25869;BME280;13688;53.154;18.136;2023-02-11T08:20:46;101351.48;;;2.03;98.40
25869;BME280;13688;53.154;18.136;2023-02-11T08:26:10;101375.16;;;2.09;97.74
25869;BME280;13688;53.154;18.136;2023-02-11T08:31:38;101380.80;;;2.26;97.24
25869;BME280;13688;53.154;18.136;2023-02-11T08:37:02;101380.61;;;2.32;96.44
25869;BME280;13688;53.154;18.136;2023-02-11T08:42:24;101377.59;;;2.43;95.81
25869;BME280;13688;53.154;18.136;2023-02-11T08:47:46;101342.80;;;2.50;95.41
25869;BME280;13688;53.154;18.136;2023-02-11T08:53:09;101341.24;;;2.45;95.44
25869;BME280;13688;53.154;18.136;2023-02-11T08:58:31;101375.87;;;2.40;96.42
25869;BME280;13688;53.154;18.136;2023-02-11T09:03:54;101373.15;;;2.43;98.14
25869;BME280;13688;53.154;18.136;2023-02-11T09:09:17;101343.66;;;2.51;99.96
25869;BME280;13688;53.154;18.136;2023-02-11T09:14:40;101360.48;;;2.51;100.00
25869;BME280;13688;53.154;18.136;2023-02-11T09:20:02;101346.78;;;2.64;100.00
25869;BME280;13688;53.154;18.136;2023-02-11T09:25:25;101330.05;;;2.62;100.00
25869;BME280;13688;53.154;18.136;2023-02-11T09:30:47;101335.13;;;2.68;100.00
25869;BME280;13688;53.154;18.136;2023-02-11T09:36:10;101324.44;;;2.69;100.00
25869;BME280;13688;53.154;18.136;2023-02-11T09:41:48;101315.41;;;2.75;100.00
25869;BME280;13688;53.154;18.136;2023-02-11T09:47:27;101267.61;;;2.75;100.00
25869;BME280;13688;53.154;18.136;2023-02-11T09:52:57;101256.19;;;2.73;100.00
25869;BME280;13688;53.154;18.136;2023-02-11T09:58:44;101255.94;;;2.79;100.00
25869;BME280;13688;53.154;18.136;2023-02-11T10:09:44;101245.90;;;2.87;100.00
25869;BME280;13688;53.154;18.136;2023-02-11T10:21:08;101298.13;;;3.11;100.00
25869;BME280;13688;53.154;18.136;2023-02-11T10:26:51;101270.91;;;3.05;100.00
25869;BME280;13688;53.154;18.136;2023-02-11T10:32:23;101285.05;;;3.05;100.00
25869;BME280;13688;53.154;18.136;2023-02-11T10:37:47;101304.58;;;3.04;100.00
25869;BME280;13688;53.154;18.136;2023-02-11T10:43:13;101305.32;;;3.08;100.00
25869;BME280;13688;53.154;18.136;2023-02-11T10:54:14;101291.81;;;3.14;100.00
25869;BME280;13688;53.154;18.136;2023-02-11T10:59:36;101298.13;;;3.11;100.00
25869;BME280;13688;53.154;18.136;2023-02-11T11:05:18;101322.77;;;3.15;100.00
25869;BME280;13688;53.154;18.136;2023-02-11T11:11:05;101299.73;;;3.15;100.00
25869;BME280;13688;53.154;18.136;2023-02-11T11:16:31;101309.42;;;3.16;100.00
25869;BME280;13688;53.154;18.136;2023-02-11T11:21:58;101282.70;;;3.21;100.00
25869;BME280;13688;53.154;18.136;2023-02-11T11:27:23;101296.78;;;3.23;100.00
25869;BME280;13688;53.154;18.136;2023-02-11T11:32:47;101302.74;;;3.30;100.00
25869;BME280;13688;53.154;18.136;2023-02-11T11:38:12;101322.08;;;3.33;100.00
25869;BME280;13688;53.154;18.136;2023-02-11T11:43:37;101308.57;;;3.39;100.00
25869;BME280;13688;53.154;18.136;2023-02-11T11:49:19;101303.34;;;3.36;100.00
25869;BME280;13688;53.154;18.136;2023-02-11T11:54:36;101312.95;;;3.40;100.00
25869;BME280;13688;53.154;18.136;2023-02-11T12:00:04;101326.19;;;3.42;100.00
25869;BME280;13688;53.154;18.136;2023-02-11T12:11:34;101320.45;;;3.53;100.00
25869;BME280;13688;53.154;18.136;2023-02-11T12:16:56;101328.27;;;3.57;100.00
25869;BME280;13688;53.154;18.136;2023-02-11T12:22:33;101315.47;;;3.67;100.00
25869;BME280;13688;53.154;18.136;2023-02-11T12:40:21;101343.07;;;3.86;100.00
25869;BME280;13688;53.154;18.136;2023-02-11T12:57:40;101351.34;;;3.79;100.00
25869;BME280;13688;53.154;18.136;2023-02-11T13:03:30;101357.40;;;3.82;100.00
25869;BME280;13688;53.154;18.136;2023-02-11T13:09:00;101351.78;;;3.90;100.00
25869;BME280;13688;53.154;18.136;2023-02-11T13:14:38;101362.98;;;3.98;100.00
25869;BME280;13688;53.154;18.136;2023-02-11T13:25:52;101371.91;;;3.97;100.00
25869;BME280;13688;53.154;18.136;2023-02-11T13:31:21;101370.84;;;4.01;100.00
25869;BME280;13688;53.154;18.136;2023-02-11T13:36:43;101371.64;;;4.03;100.00
25869;BME280;13688;53.154;18.136;2023-02-11T13:42:13;101378.82;;;4.01;100.00
25869;BME280;13688;53.154;18.136;2023-02-11T13:47:39;101395.66;;;4.01;100.00
25869;BME280;13688;53.154;18.136;2023-02-11T13:53:05;101392.06;;;4.02;100.00
25869;BME280;13688;53.154;18.136;2023-02-11T13:58:36;101402.60;;;4.06;100.00
25869;BME280;13688;53.154;18.136;2023-02-11T14:04:23;101415.08;;;4.03;100.00
25869;BME280;13688;53.154;18.136;2023-02-11T14:10:04;101425.72;;;4.03;100.00
25869;BME280;13688;53.154;18.136;2023-02-11T14:15:47;101436.49;;;4.00;100.00
25869;BME280;13688;53.154;18.136;2023-02-11T14:27:00;101464.83;;;4.01;100.00
25869;BME280;13688;53.154;18.136;2023-02-11T14:44:05;101485.48;;;3.95;100.00
25869;BME280;13688;53.154;18.136;2023-02-11T14:49:37;101494.17;;;4.00;100.00
25869;BME280;13688;53.154;18.136;2023-02-11T15:00:58;101505.03;;;3.94;100.00
25869;BME280;13688;53.154;18.136;2023-02-11T15:06:33;101504.07;;;3.96;100.00
25869;BME280;13688;53.154;18.136;2023-02-11T15:12:02;101504.97;;;3.95;100.00
25869;BME280;13688;53.154;18.136;2023-02-11T15:17:34;101523.50;;;3.98;100.00
25869;BME280;13688;53.154;18.136;2023-02-11T15:23:00;101532.50;;;3.94;100.00
25869;BME280;13688;53.154;18.136;2023-02-11T15:28:29;101535.16;;;3.94;100.00
25869;BME280;13688;53.154;18.136;2023-02-11T15:33:52;101552.06;;;3.93;100.00
25869;BME280;13688;53.154;18.136;2023-02-11T15:39:30;101568.14;;;3.90;100.00
25869;BME280;13688;53.154;18.136;2023-02-11T15:50:49;101578.78;;;3.90;100.00
25869;BME280;13688;53.154;18.136;2023-02-11T15:56:36;101585.03;;;3.89;100.00
25869;BME280;13688;53.154;18.136;2023-02-11T16:07:51;101615.97;;;3.92;100.00
25869;BME280;13688;53.154;18.136;2023-02-11T16:13:29;101622.04;;;3.95;100.00
25869;BME280;13688;53.154;18.136;2023-02-11T16:19:02;101640.13;;;3.86;100.00
25869;BME280;13688;53.154;18.136;2023-02-11T16:24:33;101649.03;;;3.85;100.00
25869;BME280;13688;53.154;18.136;2023-02-11T16:29:53;101660.72;;;3.81;100.00
25869;BME280;13688;53.154;18.136;2023-02-11T16:35:16;101660.77;;;3.79;100.00
25869;BME280;13688;53.154;18.136;2023-02-11T16:40:39;101668.58;;;3.84;100.00
25869;BME280;13688;53.154;18.136;2023-02-11T16:46:03;101675.86;;;3.79;100.00
25869;BME280;13688;53.154;18.136;2023-02-11T16:51:28;101682.19;;;3.74;100.00
25869;BME280;13688;53.154;18.136;2023-02-11T16:56:53;101683.91;;;3.77;100.00
25869;BME280;13688;53.154;18.136;2023-02-11T17:02:36;101692.02;;;3.72;100.00
25869;BME280;13688;53.154;18.136;2023-02-11T17:07:59;101705.27;;;3.74;100.00
25869;BME280;13688;53.154;18.136;2023-02-11T17:13:22;101711.39;;;3.76;100.00
25869;BME280;13688;53.154;18.136;2023-02-11T17:18:45;101727.47;;;3.73;100.00
25869;BME280;13688;53.154;18.136;2023-02-11T17:24:15;101743.23;;;3.79;100.00
25869;BME280;13688;53.154;18.136;2023-02-11T17:29:37;101751.22;;;3.79;100.00
25869;BME280;13688;53.154;18.136;2023-02-11T17:35:14;101762.36;;;3.90;100.00
25869;BME280;13688;53.154;18.136;2023-02-11T17:40:36;101765.52;;;3.75;100.00
25869;BME280;13688;53.154;18.136;2023-02-11T17:45:59;101792.12;;;3.75;100.00
25869;BME280;13688;53.154;18.136;2023-02-11T17:51:26;101813.40;;;3.75;100.00
25869;BME280;13688;53.154;18.136;2023-02-11T17:56:51;101832.07;;;3.73;100.00
25869;BME280;13688;53.154;18.136;2023-02-11T18:02:17;101834.61;;;3.78;100.00
25869;BME280;13688;53.154;18.136;2023-02-11T18:07:40;101839.08;;;3.76;100.00
25869;BME280;13688;53.154;18.136;2023-02-11T18:13:06;101838.13;;;3.79;100.00
25869;BME280;13688;53.154;18.136;2023-02-11T18:18:29;101849.11;;;3.68;100.00
25869;BME280;13688;53.154;18.136;2023-02-11T18:23:55;101851.66;;;3.71;100.00
25869;BME280;13688;53.154;18.136;2023-02-11T18:29:19;101863.94;;;3.75;100.00
25869;BME280;13688;53.154;18.136;2023-02-11T18:34:41;101872.84;;;3.74;100.00
25869;BME280;13688;53.154;18.136;2023-02-11T18:40:04;101877.16;;;3.78;100.00
25869;BME280;13688;53.154;18.136;2023-02-11T18:45:27;101880.64;;;3.80;100.00
25869;BME280;13688;53.154;18.136;2023-02-11T18:50:50;101894.76;;;3.82;100.00
25869;BME280;13688;53.154;18.136;2023-02-11T18:56:19;101892.20;;;3.79;100.00
25869;BME280;13688;53.154;18.136;2023-02-11T19:01:39;101902.90;;;3.78;100.00
25869;BME280;13688;53.154;18.136;2023-02-11T19:07:02;101912.02;;;3.69;100.00
25869;BME280;13688;53.154;18.136;2023-02-11T19:12:24;101922.83;;;3.63;100.00
25869;BME280;13688;53.154;18.136;2023-02-11T19:17:47;101928.30;;;3.58;100.00
25869;BME280;13688;53.154;18.136;2023-02-11T19:23:10;101945.72;;;3.37;100.00
25869;BME280;13688;53.154;18.136;2023-02-11T19:28:33;101947.40;;;3.41;100.00
25869;BME280;13688;53.154;18.136;2023-02-11T19:33:56;101946.43;;;3.44;100.00
25869;BME280;13688;53.154;18.136;2023-02-11T19:39:20;101959.20;;;3.31;100.00
25869;BME280;13688;53.154;18.136;2023-02-11T19:44:42;101970.43;;;3.10;100.00
25869;BME280;13688;53.154;18.136;2023-02-11T19:50:06;101984.69;;;3.06;100.00
25869;BME280;13688;53.154;18.136;2023-02-11T19:55:29;101999.22;;;2.93;100.00
25869;BME280;13688;53.154;18.136;2023-02-11T20:00:51;102009.95;;;2.88;100.00
25869;BME280;13688;53.154;18.136;2023-02-11T20:06:30;102025.37;;;2.74;100.00
25869;BME280;13688;53.154;18.136;2023-02-11T20:11:53;102049.13;;;2.80;100.00
25869;BME280;13688;53.154;18.136;2023-02-11T20:17:15;102065.73;;;2.88;100.00
25869;BME280;13688;53.154;18.136;2023-02-11T20:22:37;102082.70;;;2.82;100.00
25869;BME280;13688;53.154;18.136;2023-02-11T20:28:00;102102.30;;;2.77;100.00
25869;BME280;13688;53.154;18.136;2023-02-11T20:33:22;102117.66;;;2.64;100.00
25869;BME280;13688;53.154;18.136;2023-02-11T20:38:46;102122.47;;;2.85;100.00
25869;BME280;13688;53.154;18.136;2023-02-11T20:44:10;102130.23;;;2.95;100.00
25869;BME280;13688;53.154;18.136;2023-02-11T20:49:34;102138.23;;;2.93;100.00
25869;BME280;13688;53.154;18.136;2023-02-11T20:54:56;102148.16;;;2.85;100.00
25869;BME280;13688;53.154;18.136;2023-02-11T21:00:19;102162.31;;;2.85;100.00
25869;BME280;13688;53.154;18.136;2023-02-11T21:05:42;102180.91;;;2.85;100.00
25869;BME280;13688;53.154;18.136;2023-02-11T21:11:05;102193.23;;;2.90;100.00
25869;BME280;13688;53.154;18.136;2023-02-11T21:16:27;102226.45;;;2.67;100.00
25869;BME280;13688;53.154;18.136;2023-02-11T21:21:50;102254.95;;;2.14;100.00
25869;BME280;13688;53.154;18.136;2023-02-11T21:27:12;102265.88;;;1.96;100.00
25869;BME280;13688;53.154;18.136;2023-02-11T21:32:36;102275.83;;;1.82;100.00
25869;BME280;13688;53.154;18.136;2023-02-11T21:37:58;102284.98;;;1.62;100.00
25869;BME280;13688;53.154;18.136;2023-02-11T21:43:21;102290.56;;;1.46;100.00
25869;BME280;13688;53.154;18.136;2023-02-11T21:48:44;102296.91;;;1.35;100.00
25869;BME280;13688;53.154;18.136;2023-02-11T21:54:07;102306.62;;;1.33;100.00
25869;BME280;13688;53.154;18.136;2023-02-11T21:59:29;102321.70;;;1.30;100.00
25869;BME280;13688;53.154;18.136;2023-02-11T22:04:52;102327.05;;;1.27;100.00
25869;BME280;13688;53.154;18.136;2023-02-11T22:10:14;102343.89;;;1.21;100.00
25869;BME280;13688;53.154;18.136;2023-02-11T22:15:37;102344.08;;;1.06;100.00
25869;BME280;13688;53.154;18.136;2023-02-11T22:21:11;102354.88;;;0.91;100.00
25869;BME280;13688;53.154;18.136;2023-02-11T22:26:36;102364.67;;;0.82;100.00
25869;BME280;13688;53.154;18.136;2023-02-11T22:31:59;102365.66;;;0.72;100.00
25869;BME280;13688;53.154;18.136;2023-02-11T22:37:21;102367.55;;;0.61;100.00
25869;BME280;13688;53.154;18.136;2023-02-11T22:42:43;102375.52;;;0.56;100.00
25869;BME280;13688;53.154;18.136;2023-02-11T22:48:06;102383.47;;;0.58;100.00
25869;BME280;13688;53.154;18.136;2023-02-11T22:53:30;102383.48;;;0.55;100.00
25869;BME280;13688;53.154;18.136;2023-02-11T22:58:56;102389.67;;;0.54;100.00
25869;BME280;13688;53.154;18.136;2023-02-11T23:04:21;102402.95;;;0.48;100.00
25869;BME280;13688;53.154;18.136;2023-02-11T23:09:44;102410.06;;;0.43;100.00
25869;BME280;13688;53.154;18.136;2023-02-11T23:15:06;102428.70;;;0.31;100.00
25869;BME280;13688;53.154;18.136;2023-02-11T23:20:28;102435.02;;;0.11;100.00
25869;BME280;13688;53.154;18.136;2023-02-11T23:25:51;102435.11;;;-0.04;100.00
25869;BME280;13688;53.154;18.136;2023-02-11T23:31:26;102434.30;;;-0.15;100.00
25869;BME280;13688;53.154;18.136;2023-02-11T23:36:50;102436.14;;;-0.28;100.00
25869;BME280;13688;53.154;18.136;2023-02-11T23:42:13;102448.53;;;-0.42;100.00
25869;BME280;13688;53.154;18.136;2023-02-11T23:47:35;102464.45;;;-0.54;100.00
25869;BME280;13688;53.154;18.136;2023-02-11T23:52:58;102471.55;;;-0.66;100.00
25869;BME280;13688;53.154;18.136;2023-02-11T23:58:20;102473.30;;;-0.71;100.00
